^^
Grace C. Lehan Memorial Weather Station Historical Data
Daily Summary for March 22, 2021 Units:  English    Metric   Both
Daily Weekly Monthly Yearly
  High: Low: Average:
Temperature: 68.6 °F 66.3 °F 67.3 °F
Dew Point: 60.6 °F 59.3 °F 60 °F
Humidity: 78.7% 75.1% 78%
Wind Speed: 1.9mph 0mph 0.8mph
Wind Gust: 10mph - -
Wind- - NW
Pressure: 29.93 in 29.92 in -
Precipitation: 0.00 in    
 
 
Tabular Data for March 22, 2021
Time Temperature Dew Point Pressure Wind Wind Speed Wind Gust Humidity Rainfall Rate (Hourly) solar
00:09 68.6 °F 60.4 °F 29.92 in NNW 0.1 mph 2 mph 75.1% 0.00 in 0 W/m2
00:14 68.5 °F 60.6 °F 29.92 in Calm   2 mph 76% 0.00 in 0 W/m2
00:19 68.3 °F 60.5 °F 29.92 in Calm   2 mph 76% 0.00 in 0 W/m2
00:24 68.1 °F 60.5 °F 29.92 in NNW 0.1 mph 3 mph 76.5% 0.00 in 0 W/m2
00:29 67.9 °F 60.5 °F 29.92 in NNW 0.2 mph 4 mph 77% 0.00 in 0 W/m2
00:34 67.7 °F 60.2 °F 29.92 in NNW 0.2 mph 4 mph 77% 0.00 in 0 W/m2
00:39 67.6 °F 60.3 °F 29.92 in NW 0.5 mph 4 mph 77.4% 0.00 in 0 W/m2
00:44 67.4 °F 60.2 °F 29.92 in NW 1 mph 6 mph 77.7% 0.00 in 0 W/m2
00:49 67.3 °F 60.2 °F 29.92 in NW 1.5 mph 6 mph 78% 0.00 in 0 W/m2
00:54 67.2 °F 60.1 °F 29.92 in NW 1.9 mph 9 mph 78% 0.00 in 0 W/m2
00:59 67.2 °F 60.1 °F 29.92 in NW 0.9 mph 9 mph 78% 0.00 in 0 W/m2
01:04 67.1 °F 60 °F 29.92 in NW 1.2 mph 9 mph 78% 0.00 in 0 W/m2
01:09 67 °F 60 °F 29.92 in NW 1.9 mph 10 mph 78% 0.00 in 0 W/m2
01:14 67 °F 59.9 °F 29.92 in NW 1.8 mph 10 mph 78% 0.00 in 0 W/m2
01:19 66.9 °F 59.8 °F 29.92 in WNW 1.4 mph 10 mph 78% 0.00 in 0 W/m2
01:24 66.8 °F 59.7 °F 29.92 in WNW 0.2 mph 10 mph 78% 0.00 in 0 W/m2
01:29 66.7 °F 59.6 °F 29.93 in WNW 0.6 mph 10 mph 78% 0.00 in 0 W/m2
01:34 66.6 °F 59.6 °F 29.93 in WNW 0.9 mph 10 mph 78% 0.00 in 0 W/m2
01:39 66.5 °F 59.5 °F 29.93 in NW 0.4 mph 5 mph 78% 0.00 in 0 W/m2
01:44 66.4 °F 59.3 °F 29.93 in NW 0.9 mph 6 mph 78% 0.00 in 0 W/m2
01:48 66.3 °F 59.4 °F 29.93 in NW 0.7 mph 6 mph 78.7% 0.00 in 0 W/m2
Hartford County Weather
Compliments of Weather Underground - 4 mb